Time;durP1;ratioP1;P1;durP2;ratioP2;P2;SDS_P1;SDS_P2;PMS_P1;PMS_P2;Temp;Humidity;BMP_temperature;BMP_pressure;BME280_temperature;BME280_humidity;BME280_pressure;Samples;Min_cycle;Max_cycle;Signal;HPM_P1;HPM_P2
2023/03/22 00:01:52;;;;;;;13.32;4.60;;;11.50;97.90;;;;;;5001351;28;20019;-76
2023/03/22 00:04:18;;;;;;;12.57;4.95;;;11.50;97.80;;;;;;4998576;28;20034;-76
2023/03/22 00:06:44;;;;;;;12.93;4.03;;;11.50;97.70;;;;;;5011577;28;20026;-76
2023/03/22 00:09:11;;;;;;;15.80;4.38;;;11.50;97.90;;;;;;5019676;28;20032;-74
2023/03/22 00:11:36;;;;;;;11.23;4.60;;;11.50;97.60;;;;;;5003543;28;20026;-75
2023/03/22 00:14:02;;;;;;;16.42;5.30;;;11.50;97.50;;;;;;4995431;28;20396;-74
2023/03/22 00:16:28;;;;;;;12.48;4.00;;;11.50;97.40;;;;;;5001022;28;20488;-75
2023/03/22 00:18:53;;;;;;;14.45;4.15;;;11.50;97.40;;;;;;4991177;28;20426;-75
2023/03/22 00:21:20;;;;;;;14.57;4.38;;;11.50;97.40;;;;;;4989093;28;20509;-75
2023/03/22 00:23:45;;;;;;;13.10;5.32;;;11.50;97.30;;;;;;4983957;28;20114;-75
2023/03/22 00:26:12;;;;;;;12.77;3.85;;;11.50;97.30;;;;;;4979466;28;20129;-76
2023/03/22 00:28:38;;;;;;;11.90;4.00;;;11.50;97.30;;;;;;4992566;28;20029;-76
2023/03/22 00:31:05;;;;;;;12.43;3.97;;;11.50;97.20;;;;;;4998794;28;20129;-75
2023/03/22 00:33:31;;;;;;;8.93;3.53;;;11.40;97.20;;;;;;4993023;28;20053;-76
2023/03/22 00:35:59;;;;;;;10.70;3.80;;;11.40;97.20;;;;;;4992846;28;20026;-75
2023/03/22 00:38:32;;;;;;;13.60;4.60;;;11.40;97.20;;;;;;4992638;28;20441;-75
2023/03/22 00:41:24;;;;;;;12.48;3.97;;;11.40;97.20;;;;;;4997139;28;20049;-74
2023/03/22 00:43:50;;;;;;;10.63;3.58;;;11.40;97.30;;;;;;4991648;28;20042;-74
2023/03/22 00:46:19;;;;;;;12.07;3.85;;;11.40;97.30;;;;;;5001406;28;20080;-75
2023/03/22 00:48:44;;;;;;;10.85;4.32;;;11.40;97.30;;;;;;4992632;28;20416;-75
2023/03/22 00:51:11;;;;;;;10.93;4.28;;;11.30;97.30;;;;;;4993199;28;20038;-75
2023/03/22 00:53:37;;;;;;;11.00;3.65;;;11.30;97.30;;;;;;4992949;28;20038;-74
2023/03/22 00:56:04;;;;;;;13.60;4.18;;;11.30;97.40;;;;;;4993090;28;20097;-75
2023/03/22 00:58:30;;;;;;;14.85;5.07;;;11.30;97.50;;;;;;4993305;28;20030;-75
2023/03/22 01:00:56;;;;;;;12.20;4.60;;;11.30;97.50;;;;;;4991935;28;20113;-74
2023/03/22 01:03:23;;;;;;;11.43;4.20;;;11.30;97.50;;;;;;5000963;28;20034;-75
2023/03/22 01:05:54;;;;;;;10.73;4.22;;;11.30;97.60;;;;;;4996643;28;20026;-75
2023/03/22 01:08:21;;;;;;;11.00;4.35;;;11.30;97.60;;;;;;4998263;28;20105;-75
2023/03/22 01:10:48;;;;;;;15.10;4.72;;;11.30;97.50;;;;;;5001401;28;20039;-76
2023/03/22 01:13:14;;;;;;;13.68;4.38;;;11.30;97.90;;;;;;4999788;28;20113;-75
2023/03/22 01:15:40;;;;;;;11.05;4.75;;;11.20;97.70;;;;;;4993899;28;20079;-74
2023/03/22 01:18:07;;;;;;;10.73;4.25;;;11.20;97.70;;;;;;4993419;28;20094;-75
2023/03/22 01:20:33;;;;;;;14.70;5.32;;;11.20;97.70;;;;;;5002416;28;20038;-75
2023/03/22 01:22:58;;;;;;;11.48;4.38;;;11.20;97.70;;;;;;5006764;28;20096;-75
2023/03/22 01:25:24;;;;;;;15.25;4.97;;;11.30;97.70;;;;;;4992160;28;20739;-75
2023/03/22 01:27:51;;;;;;;11.82;3.60;;;11.20;97.70;;;;;;4993461;28;20027;-74
2023/03/22 01:30:17;;;;;;;13.93;4.93;;;11.20;97.80;;;;;;5001892;28;20034;-75
2023/03/22 01:32:42;;;;;;;11.10;4.88;;;11.20;97.70;;;;;;4993089;28;20077;-75
2023/03/22 01:35:08;;;;;;;12.07;4.20;;;11.30;97.70;;;;;;4993500;28;20029;-76
2023/03/22 01:37:34;;;;;;;11.35;4.15;;;11.30;97.70;;;;;;5017813;28;20049;-75
2023/03/22 01:40:00;;;;;;;11.35;4.70;;;11.20;97.70;;;;;;5002970;28;20037;-75
2023/03/22 01:42:27;;;;;;;10.63;4.38;;;11.30;97.70;;;;;;4981854;28;20031;-75
2023/03/22 01:45:17;;;;;;;10.30;4.55;;;11.30;97.70;;;;;;4989168;28;20065;-76
2023/03/22 01:47:49;;;;;;;12.13;4.22;;;11.30;97.70;;;;;;4986639;28;20034;-75
2023/03/22 01:50:16;;;;;;;12.40;4.75;;;11.30;97.70;;;;;;4990442;28;20154;-75
2023/03/22 01:52:43;;;;;;;19.25;5.25;;;11.30;97.70;;;;;;4991614;28;20033;-75
2023/03/22 01:55:09;;;;;;;10.70;4.80;;;11.30;97.70;;;;;;4991326;28;20054;-75
2023/03/22 01:57:36;;;;;;;14.77;4.82;;;11.30;97.70;;;;;;4991798;28;20022;-75
2023/03/22 02:00:10;;;;;;;12.40;5.13;;;11.30;97.80;;;;;;4991754;28;20022;-75
2023/03/22 02:02:36;;;;;;;13.77;6.15;;;11.30;97.80;;;;;;5003843;28;20062;-75
2023/03/22 02:05:03;;;;;;;10.68;6.22;;;11.30;97.90;;;;;;4997035;28;20042;-74
2023/03/22 02:07:30;;;;;;;11.50;5.28;;;11.30;97.90;;;;;;4996819;28;20382;-75
2023/03/22 02:09:57;;;;;;;17.02;5.82;;;11.40;98.00;;;;;;4991046;28;20034;-75
2023/03/22 02:12:47;;;;;;;12.23;6.47;;;11.40;98.20;;;;;;4990880;28;20081;-75
2023/03/22 02:15:19;;;;;;;12.55;5.97;;;11.40;98.10;;;;;;4990470;28;20544;-76
2023/03/22 02:18:05;;;;;;;15.43;5.75;;;11.40;98.60;;;;;;4990278;28;20134;-75
2023/03/22 02:20:49;;;;;;;17.70;7.78;;;11.40;98.40;;;;;;4989307;28;20440;-76
2023/03/22 02:23:45;;;;;;;14.82;8.05;;;11.40;98.40;;;;;;4991866;28;20056;-75
2023/03/22 02:26:50;;;;;;;16.45;7.38;;;11.40;98.50;;;;;;4993914;28;20031;-76
2023/03/22 02:29:28;;;;;;;15.43;7.53;;;11.50;98.70;;;;;;4978827;28;20038;-75
2023/03/22 02:32:19;;;;;;;17.58;8.20;;;11.50;98.80;;;;;;4990411;28;20084;-75
2023/03/22 02:35:22;;;;;;;18.42;9.32;;;11.50;98.80;;;;;;4987755;28;20026;-75
2023/03/22 02:38:22;;;;;;;15.13;8.77;;;11.60;98.90;;;;;;4994177;28;20030;-75
2023/03/22 02:40:57;;;;;;;18.53;10.40;;;11.60;98.90;;;;;;4994179;28;20026;-76
2023/03/22 02:43:29;;;;;;;16.50;10.77;;;11.60;99.00;;;;;;4993540;28;20049;-75
2023/03/22 02:46:06;;;;;;;17.00;11.50;;;11.60;99.00;;;;;;4991811;28;20473;-75
2023/03/22 02:48:43;;;;;;;18.45;12.38;;;11.60;99.50;;;;;;4990572;28;20023;-74
2023/03/22 02:51:16;;;;;;;18.10;11.68;;;11.60;99.10;;;;;;4990805;28;20041;-75
2023/03/22 02:54:22;;;;;;;21.27;10.90;;;11.70;99.30;;;;;;4991478;28;20057;-75
2023/03/22 02:57:27;;;;;;;21.50;13.15;;;11.70;99.30;;;;;;4989091;28;20042;-75
2023/03/22 02:59:54;;;;;;;15.57;10.77;;;11.70;99.10;;;;;;4987405;28;20030;-75
2023/03/22 03:02:22;;;;;;;21.20;13.10;;;11.70;99.00;;;;;;4990554;28;20052;-75
2023/03/22 03:04:51;;;;;;;18.75;12.73;;;11.70;99.10;;;;;;4990185;28;20030;-74
2023/03/22 03:07:22;;;;;;;16.08;10.20;;;11.80;99.30;;;;;;4989025;28;20034;-75
2023/03/22 03:09:49;;;;;;;21.30;13.57;;;11.70;99.20;;;;;;4989020;28;20038;-74
2023/03/22 03:12:26;;;;;;;19.85;11.73;;;11.80;99.50;;;;;;4990889;28;20030;-75
2023/03/22 03:14:53;;;;;;;18.58;12.90;;;11.80;99.40;;;;;;4988349;28;20022;-75
2023/03/22 03:17:21;;;;;;;18.48;11.48;;;11.80;99.40;;;;;;4981391;28;20081;-75
2023/03/22 03:20:28;;;;;;;22.83;13.07;;;11.80;99.00;;;;;;4991973;28;20039;-75
2023/03/22 03:23:01;;;;;;;20.95;11.85;;;11.80;99.00;;;;;;4992620;28;20021;-74
2023/03/22 03:25:42;;;;;;;19.40;11.13;;;11.80;98.80;;;;;;4997281;28;20034;-75
2023/03/22 03:28:37;;;;;;;17.45;11.82;;;11.80;98.80;;;;;;5004776;28;21319;-74
2023/03/22 03:31:08;;;;;;;19.13;12.82;;;11.80;99.10;;;;;;5008093;28;20551;-75
2023/03/22 03:33:42;;;;;;;18.40;9.73;;;11.80;99.20;;;;;;4999125;28;20029;-74
2023/03/22 03:36:13;;;;;;;13.65;9.48;;;11.80;98.80;;;;;;4990460;28;20079;-75
2023/03/22 03:38:44;;;;;;;16.88;8.60;;;11.70;98.90;;;;;;4990224;28;20027;-74
2023/03/22 03:41:16;;;;;;;17.10;10.38;;;11.70;99.10;;;;;;4996253;28;20029;-74
2023/03/22 03:43:45;;;;;;;19.98;11.65;;;11.70;99.30;;;;;;4999034;28;20089;-75
2023/03/22 03:46:11;;;;;;;12.67;7.80;;;11.60;99.60;;;;;;4984408;28;20033;-75
2023/03/22 03:48:40;;;;;;;13.98;9.15;;;11.70;99.30;;;;;;4988532;28;20038;-74
2023/03/22 03:51:06;;;;;;;16.90;11.00;;;11.70;99.30;;;;;;4998122;28;20041;-75
2023/03/22 03:53:31;;;;;;;12.88;8.60;;;11.70;99.30;;;;;;4993488;28;20490;-76
2023/03/22 03:55:57;;;;;;;19.08;12.15;;;11.70;99.00;;;;;;4990518;28;20449;-76
2023/03/22 03:58:23;;;;;;;19.23;10.63;;;11.70;99.40;;;;;;4988608;28;20739;-74
2023/03/22 04:00:49;;;;;;;17.52;10.18;;;11.70;99.50;;;;;;4990316;28;20022;-74
2023/03/22 04:03:16;;;;;;;12.82;9.00;;;11.70;99.30;;;;;;4992819;28;20122;-76
2023/03/22 04:05:41;;;;;;;16.30;10.38;;;11.70;99.30;;;;;;4993956;28;20030;-75
2023/03/22 04:08:07;;;;;;;15.00;9.27;;;11.70;99.40;;;;;;4993670;28;20031;-76
2023/03/22 04:10:33;;;;;;;19.65;9.82;;;11.60;99.50;;;;;;4993460;28;20066;-76
2023/03/22 04:12:59;;;;;;;17.98;10.38;;;11.60;99.50;;;;;;5006178;28;20057;-75
2023/03/22 04:15:24;;;;;;;16.15;9.73;;;11.60;99.60;;;;;;4991811;28;20571;-75
2023/03/22 04:17:52;;;;;;;17.15;9.65;;;11.50;99.70;;;;;;4993159;28;20049;-74
2023/03/22 04:20:19;;;;;;;13.77;9.32;;;11.50;99.70;;;;;;4992209;28;20034;-75
2023/03/22 04:22:47;;;;;;;13.68;8.48;;;11.50;99.80;;;;;;4993409;28;20156;-74
2023/03/22 04:25:16;;;;;;;14.65;7.50;;;11.50;99.80;;;;;;4993083;28;20081;-75
2023/03/22 04:27:44;;;;;;;13.85;7.47;;;11.50;99.70;;;;;;4993160;28;20026;-74
2023/03/22 04:30:17;;;;;;;17.85;8.20;;;11.50;99.50;;;;;;4992768;28;20038;-74
2023/03/22 04:32:44;;;;;;;12.77;8.10;;;11.50;99.40;;;;;;4993484;28;20037;-76
2023/03/22 04:35:10;;;;;;;14.23;8.18;;;11.50;99.60;;;;;;4993519;28;20027;-75
2023/03/22 04:37:35;;;;;;;13.40;6.88;;;11.50;99.50;;;;;;4998765;28;20048;-75
2023/03/22 04:40:05;;;;;;;14.93;8.43;;;11.40;99.40;;;;;;4995096;28;20133;-76
2023/03/22 04:42:31;;;;;;;13.73;7.72;;;11.40;99.40;;;;;;4995391;28;20022;-76
2023/03/22 04:44:56;;;;;;;10.93;7.05;;;11.50;99.30;;;;;;4998406;28;20054;-76
2023/03/22 04:47:22;;;;;;;11.27;6.75;;;11.40;99.40;;;;;;5002774;28;20041;-75
2023/03/22 04:49:48;;;;;;;17.10;7.13;;;11.40;99.70;;;;;;4993268;28;20104;-75
2023/03/22 04:52:14;;;;;;;12.40;7.47;;;11.40;99.50;;;;;;4993738;28;20045;-76
2023/03/22 04:54:40;;;;;;;14.32;8.00;;;11.40;99.70;;;;;;4994296;28;20052;-75
2023/03/22 04:57:05;;;;;;;15.45;7.78;;;11.40;99.70;;;;;;4994770;28;20385;-75
2023/03/22 04:59:31;;;;;;;14.75;7.32;;;11.40;99.60;;;;;;4992932;28;20014;-75
2023/03/22 05:01:57;;;;;;;11.40;5.90;;;11.30;99.40;;;;;;4990459;28;20019;-75
2023/03/22 05:04:22;;;;;;;15.10;7.43;;;11.30;99.40;;;;;;5007350;28;20033;-75
2023/03/22 05:06:48;;;;;;;13.75;6.68;;;11.30;99.50;;;;;;4994952;28;20101;-74
2023/03/22 05:09:14;;;;;;;11.15;6.70;;;11.30;99.50;;;;;;4993547;28;20018;-75
2023/03/22 05:11:40;;;;;;;14.65;6.07;;;11.30;99.60;;;;;;4992969;28;20092;-76
2023/03/22 05:14:08;;;;;;;12.95;6.45;;;11.30;99.50;;;;;;4992196;28;20364;-75
2023/03/22 05:16:33;;;;;;;15.23;6.63;;;11.30;99.40;;;;;;4992520;28;20508;-75
2023/03/22 05:19:01;;;;;;;12.85;6.30;;;11.30;99.40;;;;;;4992242;28;20026;-75
2023/03/22 05:21:28;;;;;;;13.93;6.50;;;11.20;99.60;;;;;;4998063;28;20030;-74
2023/03/22 05:23:56;;;;;;;14.55;6.45;;;11.30;99.70;;;;;;4991194;28;20449;-77
2023/03/22 05:26:23;;;;;;;14.85;6.15;;;11.30;99.60;;;;;;4992177;28;20037;-76
2023/03/22 05:28:50;;;;;;;12.60;5.22;;;11.30;99.60;;;;;;4990039;28;20019;-75
2023/03/22 05:31:20;;;;;;;14.10;6.05;;;11.30;99.50;;;;;;5002271;28;20034;-75
2023/03/22 05:33:49;;;;;;;;;;;11.40;99.20;;;;;;4991633;28;20551;-73
2023/03/22 05:36:16;;;;;;;10.57;5.13;;;11.40;99.20;;;;;;4991087;28;19913;-74
2023/03/22 05:38:43;;;;;;;9.85;5.93;;;11.30;99.20;;;;;;5001463;28;20073;-74
2023/03/22 05:41:09;;;;;;;12.43;5.22;;;11.30;99.20;;;;;;4991980;28;20037;-76
2023/03/22 05:43:36;;;;;;;13.25;5.90;;;11.30;99.30;;;;;;4991968;28;20024;-76
2023/03/22 05:46:12;;;;;;;11.88;5.85;;;11.30;99.40;;;;;;5000493;28;20488;-75
2023/03/22 05:48:39;;;;;;;11.10;6.35;;;11.30;99.30;;;;;;4993533;28;20072;-74
2023/03/22 05:51:06;;;;;;;14.00;4.93;;;11.30;99.20;;;;;;4998088;28;20145;-75
2023/03/22 05:53:32;;;;;;;14.05;5.47;;;11.20;99.20;;;;;;4995214;28;20054;-76
2023/03/22 05:55:59;;;;;;;13.13;6.00;;;11.20;99.20;;;;;;4992436;28;20104;-74
2023/03/22 05:58:29;;;;;;;8.02;4.07;;;11.20;99.50;;;;;;4991156;28;20085;-74
2023/03/22 06:00:55;;;;;;;12.07;5.32;;;11.20;99.30;;;;;;4990586;28;20046;-74
2023/03/22 06:03:21;;;;;;;10.00;4.53;;;11.10;99.30;;;;;;4989956;28;20397;-75
2023/03/22 06:05:49;;;;;;;9.85;4.72;;;11.10;99.20;;;;;;4991564;28;20030;-74
2023/03/22 06:08:15;;;;;;;10.40;4.75;;;11.10;99.40;;;;;;4989776;28;20059;-74
2023/03/22 06:10:41;;;;;;;11.18;4.30;;;11.10;99.20;;;;;;4988410;28;20073;-75
2023/03/22 06:13:07;;;;;;;10.95;4.85;;;11.00;99.30;;;;;;5003799;28;20049;-75
2023/03/22 06:15:33;;;;;;;10.70;4.03;;;11.10;99.20;;;;;;4991425;28;20041;-75
2023/03/22 06:17:58;;;;;;;10.65;4.50;;;11.10;99.30;;;;;;4991374;28;20069;-74
2023/03/22 06:20:25;;;;;;;10.38;4.75;;;11.10;99.40;;;;;;4991154;28;20560;-75
2023/03/22 06:22:52;;;;;;;13.30;4.35;;;11.10;99.20;;;;;;4997069;28;20137;-76
2023/03/22 06:25:18;;;;;;;11.38;4.75;;;11.10;99.00;;;;;;4992834;28;20018;-75
2023/03/22 06:27:46;;;;;;;12.35;5.05;;;11.10;99.10;;;;;;4989258;28;20037;-74
2023/03/22 06:30:12;;;;;;;12.75;4.70;;;11.20;99.10;;;;;;4993500;28;20030;-76
2023/03/22 06:32:38;;;;;;;10.90;4.38;;;11.20;99.10;;;;;;4990547;28;20547;-76
2023/03/22 06:35:04;;;;;;;9.45;4.00;;;11.20;99.00;;;;;;4990046;28;20089;-77
2023/03/22 06:37:29;;;;;;;12.90;5.35;;;11.20;98.90;;;;;;4991730;28;20073;-76
2023/03/22 06:39:55;;;;;;;11.60;4.38;;;11.20;98.90;;;;;;4987276;28;20026;-77
2023/03/22 06:42:22;;;;;;;10.65;4.07;;;11.20;99.10;;;;;;4992287;28;20029;-75
2023/03/22 06:44:47;;;;;;;10.95;4.70;;;11.20;98.90;;;;;;4988136;28;20516;-76
2023/03/22 06:47:14;;;;;;;15.48;4.22;;;11.20;98.80;;;;;;4987523;28;20058;-75
2023/03/22 06:49:40;;;;;;;10.95;3.17;;;11.20;98.70;;;;;;4999263;28;20504;-76
2023/03/22 06:52:08;;;;;;;10.50;3.92;;;11.30;98.60;;;;;;4988631;28;20108;-75
2023/03/22 06:54:34;;;;;;;11.35;3.08;;;11.40;98.50;;;;;;4995427;28;20023;-76
2023/03/22 06:56:59;;;;;;;13.07;4.00;;;11.40;98.30;;;;;;5003879;28;20567;-76
2023/03/22 06:59:26;;;;;;;11.05;3.42;;;11.50;98.20;;;;;;4988868;28;20097;-77
2023/03/22 07:01:52;;;;;;;9.80;3.15;;;11.50;97.90;;;;;;4988937;28;20026;-77
2023/03/22 07:04:18;;;;;;;10.98;4.47;;;11.60;97.80;;;;;;4985785;28;20396;-76
2023/03/22 07:06:44;;;;;;;8.32;3.40;;;11.60;97.80;;;;;;4988540;28;20025;-77
2023/03/22 07:09:10;;;;;;;7.65;2.97;;;11.70;97.50;;;;;;4987710;28;20026;-75
2023/03/22 07:11:35;;;;;;;11.90;2.72;;;11.70;97.60;;;;;;4983562;28;20050;-77
2023/03/22 07:14:01;;;;;;;10.98;4.50;;;11.80;97.60;;;;;;4978144;28;20077;-77
2023/03/22 07:16:27;;;;;;;15.48;3.70;;;11.80;97.50;;;;;;4985306;28;20050;-76
2023/03/22 07:18:53;;;;;;;11.63;3.53;;;11.70;97.60;;;;;;4981132;28;20026;-78
2023/03/22 07:21:18;;;;;;;12.00;4.13;;;11.70;97.70;;;;;;4998882;28;20039;-77
2023/03/22 07:23:44;;;;;;;12.80;3.50;;;11.70;97.60;;;;;;4987897;28;20125;-75
2023/03/22 07:26:12;;;;;;;12.13;3.78;;;11.70;97.60;;;;;;4987027;28;20034;-74
2023/03/22 07:28:40;;;;;;;7.55;2.83;;;11.70;97.60;;;;;;4988071;28;20026;-75
2023/03/22 07:31:10;;;;;;;10.75;4.18;;;11.80;97.50;;;;;;4986949;28;20038;-75
2023/03/22 07:33:36;;;;;;;12.05;3.45;;;11.80;97.40;;;;;;4989157;28;20023;-75
2023/03/22 07:36:03;;;;;;;10.85;3.20;;;11.90;97.20;;;;;;4985961;28;20026;-74
2023/03/22 07:38:29;;;;;;;11.50;3.95;;;11.80;97.20;;;;;;4991756;28;20022;-75
2023/03/22 07:40:55;;;;;;;13.73;4.00;;;11.90;97.20;;;;;;4995166;28;20084;-74
2023/03/22 07:43:21;;;;;;;8.57;3.15;;;11.80;97.10;;;;;;4989681;28;20092;-75
2023/03/22 07:45:51;;;;;;;17.17;4.43;;;11.80;97.30;;;;;;4996646;28;20022;-74
2023/03/22 07:48:21;;;;;;;13.95;3.92;;;11.90;97.20;;;;;;4992387;28;20088;-74
2023/03/22 07:50:47;;;;;;;11.48;4.45;;;11.90;97.20;;;;;;4990413;28;20080;-74
2023/03/22 07:53:12;;;;;;;12.68;4.43;;;11.90;97.10;;;;;;4991599;28;21476;-73
2023/03/22 07:55:39;;;;;;;12.18;4.38;;;11.90;97.10;;;;;;4997283;28;20170;-74
2023/03/22 07:58:05;;;;;;;13.25;4.55;;;11.80;97.20;;;;;;5006580;28;20057;-73
2023/03/22 08:00:31;;;;;;;12.82;4.38;;;11.80;97.10;;;;;;5003537;28;20038;-74
2023/03/22 08:02:57;;;;;;;13.18;4.40;;;11.90;97.10;;;;;;4988929;28;20026;-75
2023/03/22 08:05:24;;;;;;;13.90;4.80;;;12.00;97.20;;;;;;5000703;28;20029;-74
2023/03/22 08:07:51;;;;;;;15.13;4.63;;;12.00;97.00;;;;;;4995258;28;20030;-74
2023/03/22 08:10:17;;;;;;;9.27;4.03;;;12.00;97.10;;;;;;5004562;28;20041;-75
2023/03/22 08:12:42;;;;;;;14.65;4.18;;;12.00;97.00;;;;;;4997592;28;20505;-75
2023/03/22 08:15:09;;;;;;;12.02;4.45;;;12.00;96.90;;;;;;5000115;28;20110;-75
2023/03/22 08:17:35;;;;;;;12.10;3.70;;;12.10;96.80;;;;;;4989564;28;20112;-74
2023/03/22 08:20:04;;;;;;;14.57;3.95;;;12.20;96.70;;;;;;4991317;28;20026;-75
2023/03/22 08:22:31;;;;;;;13.70;4.57;;;12.20;96.60;;;;;;4991560;28;20027;-74
2023/03/22 08:24:56;;;;;;;11.75;4.38;;;12.20;96.50;;;;;;4990732;28;20503;-74
2023/03/22 08:27:22;;;;;;;13.32;4.47;;;12.20;96.50;;;;;;4986650;28;20026;-75
2023/03/22 08:29:47;;;;;;;17.23;5.35;;;12.30;96.40;;;;;;4989750;28;20037;-75
2023/03/22 08:32:15;;;;;;;15.15;3.72;;;12.30;96.20;;;;;;5002730;28;20030;-75
2023/03/22 08:34:42;;;;;;;20.80;4.43;;;12.30;96.10;;;;;;5007134;28;20054;-74
2023/03/22 08:37:09;;;;;;;11.45;4.78;;;12.30;96.20;;;;;;4992402;28;21000;-75
2023/03/22 08:39:36;;;;;;;14.25;4.45;;;12.30;96.20;;;;;;4991063;28;20131;-75
2023/03/22 08:42:02;;;;;;;14.88;3.63;;;12.30;96.10;;;;;;4990852;28;20022;-75
2023/03/22 08:44:28;;;;;;;12.30;3.42;;;12.50;96.00;;;;;;4989895;28;20136;-76
2023/03/22 08:46:54;;;;;;;14.05;4.75;;;12.50;95.90;;;;;;4991737;28;20042;-74
2023/03/22 08:49:20;;;;;;;9.85;3.80;;;12.50;95.60;;;;;;4991151;28;20027;-76
2023/03/22 08:51:46;;;;;;;15.20;4.78;;;12.50;95.40;;;;;;4992247;28;20046;-74
2023/03/22 08:54:12;;;;;;;13.20;5.07;;;12.60;95.50;;;;;;4990645;28;20073;-75
2023/03/22 08:56:38;;;;;;;11.60;4.45;;;12.60;95.60;;;;;;4991401;28;20022;-74
2023/03/22 08:59:05;;;;;;;11.65;3.60;;;12.80;95.00;;;;;;4991239;28;20026;-75
2023/03/22 09:01:31;;;;;;;13.80;4.60;;;12.90;94.80;;;;;;4990617;28;20027;-75
2023/03/22 09:03:57;;;;;;;12.88;4.18;;;12.90;94.50;;;;;;4990668;28;20052;-74
2023/03/22 09:06:24;;;;;;;12.57;3.85;;;12.90;94.60;;;;;;5014180;28;20022;-74
2023/03/22 09:08:51;;;;;;;11.23;3.83;;;12.90;94.20;;;;;;4995660;28;20057;-75
2023/03/22 09:11:18;;;;;;;13.40;4.00;;;13.00;94.20;;;;;;5002136;28;20080;-76
2023/03/22 09:13:44;;;;;;;14.70;3.90;;;13.00;94.00;;;;;;5004907;28;20046;-75
2023/03/22 09:16:10;;;;;;;12.00;3.78;;;12.90;94.30;;;;;;5001640;28;20049;-75
2023/03/22 09:18:36;;;;;;;13.18;3.60;;;13.00;94.00;;;;;;5004686;28;20388;-74
2023/03/22 09:21:04;;;;;;;10.38;3.33;;;13.00;93.80;;;;;;4989810;28;20033;-77
2023/03/22 09:23:31;;;;;;;9.40;3.47;;;13.10;93.80;;;;;;4991337;28;20057;-75
2023/03/22 09:26:00;;;;;;;11.07;3.42;;;13.10;93.40;;;;;;4993618;28;20026;-75
2023/03/22 09:28:27;;;;;;;11.73;2.83;;;13.20;93.10;;;;;;5004541;28;20116;-76
2023/03/22 09:30:52;;;;;;;10.77;2.80;;;13.10;93.40;;;;;;4998152;28;20558;-75
2023/03/22 09:33:18;;;;;;;9.90;3.13;;;13.20;93.20;;;;;;4993469;28;20030;-74
2023/03/22 09:35:44;;;;;;;8.98;2.88;;;13.20;93.20;;;;;;4990053;28;20085;-74
2023/03/22 09:38:11;;;;;;;9.18;2.92;;;13.10;93.00;;;;;;5002775;28;20022;-75
2023/03/22 09:40:45;;;;;;;12.75;2.88;;;13.10;92.80;;;;;;4991180;28;20109;-75
2023/03/22 09:43:14;;;;;;;12.32;3.03;;;13.10;93.00;;;;;;4994481;28;20366;-75
2023/03/22 09:45:47;;;;;;;9.40;2.97;;;13.20;92.90;;;;;;4996055;28;20014;-75
2023/03/22 09:48:36;;;;;;;12.38;3.65;;;13.10;93.00;;;;;;4994780;28;20022;-75
2023/03/22 09:51:06;;;;;;;13.65;3.65;;;13.10;93.00;;;;;;4990753;28;20030;-76
2023/03/22 09:53:32;;;;;;;11.75;3.40;;;13.00;92.80;;;;;;4990880;28;20081;-75
2023/03/22 09:56:22;;;;;;;14.32;2.72;;;12.90;93.00;;;;;;4993975;28;20028;-74
2023/03/22 09:59:14;;;;;;;18.67;3.50;;;12.90;93.30;;;;;;4981240;28;20049;-78
2023/03/22 10:01:53;;;;;;;12.20;3.30;;;13.00;93.30;;;;;;4987212;28;20033;-76
2023/03/22 10:04:28;;;;;;;12.32;2.92;;;13.00;93.20;;;;;;4988957;28;20081;-79
2023/03/22 10:07:25;;;;;;;11.65;3.25;;;13.00;93.00;;;;;;4986404;28;20431;-76
2023/03/22 10:10:02;;;;;;;11.15;2.95;;;13.00;93.00;;;;;;4991353;28;20034;-77
2023/03/22 10:12:58;;;;;;;14.73;3.22;;;13.00;93.10;;;;;;4993437;28;20053;-75
2023/03/22 10:15:32;;;;;;;11.35;2.58;;;13.00;93.20;;;;;;4997806;28;20042;-77
2023/03/22 10:17:59;;;;;;;6.38;2.10;;;13.00;93.20;;;;;;4994407;28;20105;-77
2023/03/22 10:20:57;;;;;;;13.25;2.65;;;13.00;93.20;;;;;;4986878;28;20034;-76
2023/03/22 10:23:29;;;;;;;12.48;3.35;;;12.90;93.20;;;;;;4985315;28;20031;-75
2023/03/22 10:25:57;;;;;;;9.27;2.53;;;12.80;93.50;;;;;;4986550;28;20044;-75
2023/03/22 10:28:36;;;;;;;14.48;3.85;;;12.80;93.80;;;;;;4989090;28;20027;-76
2023/03/22 10:31:01;;;;;;;11.18;2.60;;;12.80;93.90;;;;;;4990331;28;20506;-76
2023/03/22 10:33:34;;;;;;;12.60;1.95;;;12.80;94.20;;;;;;4987997;28;20080;-75
2023/03/22 10:36:01;;;;;;;11.05;2.75;;;12.80;94.50;;;;;;4986787;28;20089;-75
2023/03/22 10:38:29;;;;;;;9.38;3.45;;;12.80;94.40;;;;;;4987791;28;20489;-75
2023/03/22 10:40:57;;;;;;;10.93;2.63;;;12.70;94.50;;;;;;4986428;28;20030;-76
2023/03/22 10:43:32;;;;;;;14.00;3.28;;;12.70;94.80;;;;;;4987332;28;20117;-76
2023/03/22 10:46:01;;;;;;;9.23;2.33;;;12.60;95.10;;;;;;4993144;28;20018;-75
2023/03/22 10:48:31;;;;;;;11.23;2.83;;;12.50;95.30;;;;;;4989587;28;20037;-75
2023/03/22 10:50:58;;;;;;;11.15;2.63;;;12.50;95.80;;;;;;4986130;28;20125;-77
2023/03/22 10:53:24;;;;;;;9.85;2.78;;;12.50;96.20;;;;;;4990035;28;20460;-75
2023/03/22 10:55:50;;;;;;;11.13;2.70;;;12.40;96.60;;;;;;4988618;28;20034;-76
2023/03/22 10:58:17;;;;;;;10.98;3.65;;;12.40;96.90;;;;;;4987700;28;20563;-76
2023/03/22 11:00:48;;;;;;;9.80;3.28;;;12.40;96.90;;;;;;4988426;28;20033;-75
2023/03/22 11:03:35;;;;;;;9.52;2.78;;;12.40;97.00;;;;;;4988543;28;20050;-75
2023/03/22 11:06:26;;;;;;;12.30;3.00;;;12.40;97.10;;;;;;4986661;28;20658;-75
2023/03/22 11:09:10;;;;;;;10.13;3.28;;;12.40;97.60;;;;;;4985910;28;20034;-77
2023/03/22 11:11:54;;;;;;;9.43;2.60;;;12.30;97.50;;;;;;4988980;28;20040;-76
2023/03/22 11:14:31;;;;;;;8.18;2.58;;;12.30;97.50;;;;;;4989317;28;20045;-74
2023/03/22 11:16:57;;;;;;;9.68;2.95;;;12.30;97.60;;;;;;4990690;28;20050;-75
2023/03/22 11:19:27;;;;;;;11.00;2.90;;;12.30;97.60;;;;;;4992276;28;20049;-75
2023/03/22 11:21:57;;;;;;;11.40;3.88;;;12.40;97.70;;;;;;4991295;28;20030;-76
2023/03/22 11:24:29;;;;;;;9.55;2.88;;;12.30;97.90;;;;;;4986665;28;20121;-77
2023/03/22 11:27:20;;;;;;;12.48;2.90;;;12.30;98.10;;;;;;5005168;28;20061;-77
2023/03/22 11:29:51;;;;;;;11.65;3.92;;;12.30;98.20;;;;;;4990914;28;20036;-77
2023/03/22 11:32:26;;;;;;;9.18;2.72;;;12.30;98.50;;;;;;5007221;28;20104;-78
2023/03/22 11:35:17;;;;;;;10.73;4.20;;;12.30;98.40;;;;;;4989984;28;20030;-76
2023/03/22 11:37:47;;;;;;;8.48;2.60;;;12.30;98.40;;;;;;4988947;28;20497;-77
2023/03/22 11:40:19;;;;;;;12.40;3.00;;;12.30;98.30;;;;;;4990830;28;20389;-78
2023/03/22 11:42:47;;;;;;;12.68;3.45;;;12.40;98.10;;;;;;4988347;28;20794;-78
2023/03/22 11:45:20;;;;;;;10.25;2.83;;;12.40;98.20;;;;;;4988345;28;20500;-77
2023/03/22 11:47:46;;;;;;;6.20;2.47;;;12.40;98.30;;;;;;4992336;28;20481;-76
2023/03/22 11:50:27;;;;;;;9.40;2.63;;;12.50;98.20;;;;;;4988491;28;20037;-76
2023/03/22 11:52:53;;;;;;;13.73;3.35;;;12.50;98.00;;;;;;4989810;28;20026;-77
2023/03/22 11:55:19;;;;;;;8.65;2.88;;;12.50;97.80;;;;;;4986055;28;20081;-76
2023/03/22 11:57:46;;;;;;;12.40;2.90;;;12.50;97.80;;;;;;4987538;28;20035;-77
2023/03/22 12:00:20;;;;;;;9.35;2.88;;;12.40;98.00;;;;;;4987107;28;20028;-74
2023/03/22 12:03:05;;;;;;;8.68;2.33;;;12.40;97.70;;;;;;4988904;28;20024;-76
2023/03/22 12:05:35;;;;;;;10.93;2.60;;;12.40;97.60;;;;;;4986695;28;20050;-74
2023/03/22 12:08:05;;;;;;;8.77;2.97;;;12.40;97.80;;;;;;4991900;28;20110;-76
2023/03/22 12:10:37;;;;;;;7.03;2.10;;;12.40;98.00;;;;;;5000533;28;20050;-73
2023/03/22 12:13:25;;;;;;;9.25;2.50;;;12.50;97.70;;;;;;4994311;28;20073;-77
2023/03/22 12:15:55;;;;;;;8.25;2.58;;;12.40;98.20;;;;;;4987516;28;20066;-77
2023/03/22 12:18:38;;;;;;;12.35;3.53;;;12.40;97.90;;;;;;4989670;28;20030;-75
2023/03/22 12:21:04;;;;;;;8.85;2.60;;;12.40;97.80;;;;;;4989743;28;20155;-77
2023/03/22 12:23:34;;;;;;;9.93;2.70;;;12.50;97.50;;;;;;4993232;28;20500;-77
2023/03/22 12:26:24;;;;;;;7.38;2.33;;;12.40;97.40;;;;;;4991060;28;20034;-75
2023/03/22 12:29:01;;;;;;;8.23;3.28;;;12.50;97.40;;;;;;4994115;28;20022;-75
2023/03/22 12:31:41;;;;;;;9.55;2.70;;;12.40;97.50;;;;;;4991302;28;20031;-76
2023/03/22 12:34:14;;;;;;;5.38;1.65;;;12.40;97.50;;;;;;4988346;28;20034;-76
2023/03/22 12:36:48;;;;;;;7.35;2.83;;;12.40;97.40;;;;;;4988558;28;20073;-74
2023/03/22 12:39:47;;;;;;;11.70;2.55;;;12.30;97.40;;;;;;4988663;28;20038;-74
2023/03/22 12:42:32;;;;;;;9.80;2.42;;;12.40;97.30;;;;;;4988639;28;20054;-76
2023/03/22 12:45:03;;;;;;;7.55;2.28;;;12.40;97.40;;;;;;4987936;28;20667;-75
2023/03/22 12:47:45;;;;;;;7.88;3.08;;;12.40;97.30;;;;;;4987089;28;20848;-74
2023/03/22 12:50:24;;;;;;;7.20;2.70;;;12.50;97.30;;;;;;4987484;28;20116;-76
2023/03/22 12:52:53;;;;;;;6.25;2.13;;;12.50;97.30;;;;;;4987581;28;20480;-76
2023/03/22 12:55:30;;;;;;;7.32;2.72;;;12.60;97.10;;;;;;4988706;28;20702;-76